sensor_id;sensor_type;location;lat;lon;timestamp;P1;durP1;ratioP1;P2;durP2;ratioP2
17727;SDS011;8984;49.268;12.302;2023-01-01T00:01:26;290.67;;;200.20;;
17727;SDS011;8984;49.268;12.302;2023-01-01T00:03:54;296.43;;;199.07;;
17727;SDS011;8984;49.268;12.302;2023-01-01T00:06:23;225.17;;;149.47;;
17727;SDS011;8984;49.268;12.302;2023-01-01T00:08:52;180.77;;;122.83;;
17727;SDS011;8984;49.268;12.302;2023-01-01T00:11:38;128.27;;;90.63;;
17727;SDS011;8984;49.268;12.302;2023-01-01T00:14:05;134.37;;;87.33;;
17727;SDS011;8984;49.268;12.302;2023-01-01T00:16:32;100.93;;;69.10;;
17727;SDS011;8984;49.268;12.302;2023-01-01T00:18:59;91.13;;;61.43;;
17727;SDS011;8984;49.268;12.302;2023-01-01T00:21:27;85.47;;;59.77;;
17727;SDS011;8984;49.268;12.302;2023-01-01T00:23:54;88.13;;;59.80;;
17727;SDS011;8984;49.268;12.302;2023-01-01T00:26:20;86.90;;;60.37;;
17727;SDS011;8984;49.268;12.302;2023-01-01T00:28:47;79.27;;;56.00;;
17727;SDS011;8984;49.268;12.302;2023-01-01T00:31:15;86.90;;;58.07;;
17727;SDS011;8984;49.268;12.302;2023-01-01T00:33:43;78.17;;;54.83;;
17727;SDS011;8984;49.268;12.302;2023-01-01T00:36:11;64.03;;;44.13;;
17727;SDS011;8984;49.268;12.302;2023-01-01T00:38:40;82.33;;;55.83;;
17727;SDS011;8984;49.268;12.302;2023-01-01T00:41:08;61.10;;;44.53;;
17727;SDS011;8984;49.268;12.302;2023-01-01T00:43:35;63.00;;;44.57;;
17727;SDS011;8984;49.268;12.302;2023-01-01T00:46:03;56.80;;;39.90;;
17727;SDS011;8984;49.268;12.302;2023-01-01T00:48:31;72.20;;;54.47;;
17727;SDS011;8984;49.268;12.302;2023-01-01T00:50:58;72.30;;;50.50;;
17727;SDS011;8984;49.268;12.302;2023-01-01T00:53:25;58.83;;;42.07;;
17727;SDS011;8984;49.268;12.302;2023-01-01T00:55:53;44.53;;;33.07;;
17727;SDS011;8984;49.268;12.302;2023-01-01T00:58:21;38.80;;;28.73;;
17727;SDS011;8984;49.268;12.302;2023-01-01T01:00:49;49.90;;;34.53;;
17727;SDS011;8984;49.268;12.302;2023-01-01T01:03:16;38.70;;;27.60;;
17727;SDS011;8984;49.268;12.302;2023-01-01T01:05:53;34.20;;;23.50;;
17727;SDS011;8984;49.268;12.302;2023-01-01T01:08:20;25.00;;;18.17;;
17727;SDS011;8984;49.268;12.302;2023-01-01T01:10:46;24.37;;;18.27;;
17727;SDS011;8984;49.268;12.302;2023-01-01T01:13:15;27.13;;;18.23;;
17727;SDS011;8984;49.268;12.302;2023-01-01T01:15:41;24.93;;;17.90;;
17727;SDS011;8984;49.268;12.302;2023-01-01T01:18:08;24.07;;;18.47;;
17727;SDS011;8984;49.268;12.302;2023-01-01T01:20:35;26.27;;;19.83;;
17727;SDS011;8984;49.268;12.302;2023-01-01T01:23:02;30.43;;;23.27;;
17727;SDS011;8984;49.268;12.302;2023-01-01T01:25:30;33.67;;;24.90;;
17727;SDS011;8984;49.268;12.302;2023-01-01T01:27:56;33.27;;;24.47;;
17727;SDS011;8984;49.268;12.302;2023-01-01T01:30:25;41.90;;;29.40;;
17727;SDS011;8984;49.268;12.302;2023-01-01T01:32:51;35.17;;;24.87;;
17727;SDS011;8984;49.268;12.302;2023-01-01T01:35:18;22.60;;;15.73;;
17727;SDS011;8984;49.268;12.302;2023-01-01T01:37:45;20.87;;;12.57;;
17727;SDS011;8984;49.268;12.302;2023-01-01T01:40:13;16.57;;;11.73;;
17727;SDS011;8984;49.268;12.302;2023-01-01T01:42:44;19.57;;;12.40;;
17727;SDS011;8984;49.268;12.302;2023-01-01T01:45:11;15.40;;;10.93;;
17727;SDS011;8984;49.268;12.302;2023-01-01T01:47:41;16.63;;;11.47;;
17727;SDS011;8984;49.268;12.302;2023-01-01T01:50:13;15.60;;;11.60;;
17727;SDS011;8984;49.268;12.302;2023-01-01T01:52:46;17.07;;;12.70;;
17727;SDS011;8984;49.268;12.302;2023-01-01T01:55:25;14.87;;;10.93;;
17727;SDS011;8984;49.268;12.302;2023-01-01T01:57:54;17.10;;;12.00;;
17727;SDS011;8984;49.268;12.302;2023-01-01T02:00:25;18.80;;;11.60;;
17727;SDS011;8984;49.268;12.302;2023-01-01T02:02:55;17.40;;;11.90;;
17727;SDS011;8984;49.268;12.302;2023-01-01T02:05:24;14.67;;;10.63;;
17727;SDS011;8984;49.268;12.302;2023-01-01T02:07:52;17.57;;;11.70;;
17727;SDS011;8984;49.268;12.302;2023-01-01T02:10:20;13.57;;;10.07;;
17727;SDS011;8984;49.268;12.302;2023-01-01T02:12:47;14.97;;;10.27;;
17727;SDS011;8984;49.268;12.302;2023-01-01T02:15:14;16.60;;;11.17;;
17727;SDS011;8984;49.268;12.302;2023-01-01T02:17:43;15.73;;;11.20;;
17727;SDS011;8984;49.268;12.302;2023-01-01T02:20:20;12.93;;;10.23;;
17727;SDS011;8984;49.268;12.302;2023-01-01T02:23:04;13.17;;;9.67;;
17727;SDS011;8984;49.268;12.302;2023-01-01T02:25:50;14.47;;;10.13;;
17727;SDS011;8984;49.268;12.302;2023-01-01T02:31:19;14.53;;;10.73;;
17727;SDS011;8984;49.268;12.302;2023-01-01T02:33:49;15.37;;;10.33;;
17727;SDS011;8984;49.268;12.302;2023-01-01T02:36:19;15.43;;;10.30;;
17727;SDS011;8984;49.268;12.302;2023-01-01T02:38:50;14.23;;;9.87;;
17727;SDS011;8984;49.268;12.302;2023-01-01T02:41:20;13.23;;;9.60;;
17727;SDS011;8984;49.268;12.302;2023-01-01T02:43:52;12.40;;;9.37;;
17727;SDS011;8984;49.268;12.302;2023-01-01T02:46:19;12.87;;;8.83;;
17727;SDS011;8984;49.268;12.302;2023-01-01T02:48:47;14.47;;;9.60;;
17727;SDS011;8984;49.268;12.302;2023-01-01T02:51:16;12.33;;;8.67;;
17727;SDS011;8984;49.268;12.302;2023-01-01T02:53:54;13.33;;;8.70;;
17727;SDS011;8984;49.268;12.302;2023-01-01T02:56:29;12.23;;;8.90;;
17727;SDS011;8984;49.268;12.302;2023-01-01T02:59:07;16.60;;;9.10;;
17727;SDS011;8984;49.268;12.302;2023-01-01T03:02:07;12.27;;;8.17;;
17727;SDS011;8984;49.268;12.302;2023-01-01T03:04:43;12.47;;;8.10;;
17727;SDS011;8984;49.268;12.302;2023-01-01T03:07:20;12.33;;;8.07;;
17727;SDS011;8984;49.268;12.302;2023-01-01T03:09:53;11.57;;;7.67;;
17727;SDS011;8984;49.268;12.302;2023-01-01T03:12:26;11.23;;;8.33;;
17727;SDS011;8984;49.268;12.302;2023-01-01T03:15:06;9.57;;;7.80;;
17727;SDS011;8984;49.268;12.302;2023-01-01T03:17:37;10.17;;;7.73;;
17727;SDS011;8984;49.268;12.302;2023-01-01T03:20:12;9.83;;;6.90;;
17727;SDS011;8984;49.268;12.302;2023-01-01T03:22:42;9.53;;;7.40;;
17727;SDS011;8984;49.268;12.302;2023-01-01T03:25:13;10.30;;;6.93;;
17727;SDS011;8984;49.268;12.302;2023-01-01T03:27:43;9.83;;;7.73;;
17727;SDS011;8984;49.268;12.302;2023-01-01T03:30:15;9.50;;;7.53;;
17727;SDS011;8984;49.268;12.302;2023-01-01T03:32:46;11.87;;;9.00;;
17727;SDS011;8984;49.268;12.302;2023-01-01T03:35:29;12.00;;;8.33;;
17727;SDS011;8984;49.268;12.302;2023-01-01T03:37:59;10.60;;;7.77;;
17727;SDS011;8984;49.268;12.302;2023-01-01T03:40:28;11.43;;;8.80;;
17727;SDS011;8984;49.268;12.302;2023-01-01T03:43:01;13.40;;;7.80;;
17727;SDS011;8984;49.268;12.302;2023-01-01T03:45:34;10.67;;;7.93;;
17727;SDS011;8984;49.268;12.302;2023-01-01T03:48:04;11.50;;;7.30;;
17727;SDS011;8984;49.268;12.302;2023-01-01T03:50:34;12.60;;;8.73;;
17727;SDS011;8984;49.268;12.302;2023-01-01T03:53:12;12.00;;;7.90;;
17727;SDS011;8984;49.268;12.302;2023-01-01T03:55:47;9.93;;;7.53;;
17727;SDS011;8984;49.268;12.302;2023-01-01T03:58:22;12.50;;;8.33;;
17727;SDS011;8984;49.268;12.302;2023-01-01T04:01:00;11.97;;;7.70;;
17727;SDS011;8984;49.268;12.302;2023-01-01T04:03:29;10.87;;;8.10;;
17727;SDS011;8984;49.268;12.302;2023-01-01T04:05:57;11.57;;;8.30;;
17727;SDS011;8984;49.268;12.302;2023-01-01T04:08:26;11.20;;;8.00;;
17727;SDS011;8984;49.268;12.302;2023-01-01T04:10:55;12.90;;;8.80;;
17727;SDS011;8984;49.268;12.302;2023-01-01T04:13:24;15.30;;;8.73;;
17727;SDS011;8984;49.268;12.302;2023-01-01T04:15:51;13.17;;;9.10;;
17727;SDS011;8984;49.268;12.302;2023-01-01T04:18:19;12.37;;;8.10;;
17727;SDS011;8984;49.268;12.302;2023-01-01T04:20:46;12.70;;;8.50;;
17727;SDS011;8984;49.268;12.302;2023-01-01T04:23:12;10.53;;;8.07;;
17727;SDS011;8984;49.268;12.302;2023-01-01T04:25:39;13.97;;;10.03;;
17727;SDS011;8984;49.268;12.302;2023-01-01T04:28:06;16.17;;;11.10;;
17727;SDS011;8984;49.268;12.302;2023-01-01T04:30:32;13.20;;;10.37;;
17727;SDS011;8984;49.268;12.302;2023-01-01T04:32:59;13.47;;;9.40;;
17727;SDS011;8984;49.268;12.302;2023-01-01T04:35:27;17.50;;;11.17;;
17727;SDS011;8984;49.268;12.302;2023-01-01T04:37:54;13.53;;;10.43;;
17727;SDS011;8984;49.268;12.302;2023-01-01T04:40:23;14.07;;;11.00;;
17727;SDS011;8984;49.268;12.302;2023-01-01T04:42:52;16.20;;;12.10;;
17727;SDS011;8984;49.268;12.302;2023-01-01T04:45:19;13.93;;;10.23;;
17727;SDS011;8984;49.268;12.302;2023-01-01T04:47:45;13.53;;;10.70;;
17727;SDS011;8984;49.268;12.302;2023-01-01T04:50:12;15.43;;;10.30;;
17727;SDS011;8984;49.268;12.302;2023-01-01T04:52:41;15.63;;;11.57;;
17727;SDS011;8984;49.268;12.302;2023-01-01T04:55:07;15.20;;;10.73;;
17727;SDS011;8984;49.268;12.302;2023-01-01T04:57:34;17.37;;;12.17;;
17727;SDS011;8984;49.268;12.302;2023-01-01T05:00:01;13.30;;;10.80;;
17727;SDS011;8984;49.268;12.302;2023-01-01T05:02:29;17.23;;;12.27;;
17727;SDS011;8984;49.268;12.302;2023-01-01T05:04:56;15.13;;;10.87;;
17727;SDS011;8984;49.268;12.302;2023-01-01T05:07:23;18.27;;;13.13;;
17727;SDS011;8984;49.268;12.302;2023-01-01T05:09:51;14.90;;;11.10;;
17727;SDS011;8984;49.268;12.302;2023-01-01T05:12:18;16.30;;;11.90;;
17727;SDS011;8984;49.268;12.302;2023-01-01T05:14:45;14.67;;;11.43;;
17727;SDS011;8984;49.268;12.302;2023-01-01T05:17:11;16.53;;;11.33;;
17727;SDS011;8984;49.268;12.302;2023-01-01T05:19:38;18.30;;;11.83;;
17727;SDS011;8984;49.268;12.302;2023-01-01T05:22:05;16.70;;;11.93;;
17727;SDS011;8984;49.268;12.302;2023-01-01T05:24:32;13.83;;;9.90;;
17727;SDS011;8984;49.268;12.302;2023-01-01T05:27:01;13.23;;;10.50;;
17727;SDS011;8984;49.268;12.302;2023-01-01T05:29:28;18.73;;;11.47;;
17727;SDS011;8984;49.268;12.302;2023-01-01T05:31:55;18.80;;;10.90;;
17727;SDS011;8984;49.268;12.302;2023-01-01T05:34:22;17.23;;;11.27;;
17727;SDS011;8984;49.268;12.302;2023-01-01T05:36:49;15.93;;;10.97;;
17727;SDS011;8984;49.268;12.302;2023-01-01T05:39:16;20.40;;;12.43;;
17727;SDS011;8984;49.268;12.302;2023-01-01T05:41:42;20.47;;;13.33;;
17727;SDS011;8984;49.268;12.302;2023-01-01T05:44:11;21.67;;;12.67;;
17727;SDS011;8984;49.268;12.302;2023-01-01T05:46:40;17.80;;;11.47;;
17727;SDS011;8984;49.268;12.302;2023-01-01T05:49:08;17.33;;;12.43;;
17727;SDS011;8984;49.268;12.302;2023-01-01T05:51:36;16.83;;;12.30;;
17727;SDS011;8984;49.268;12.302;2023-01-01T05:54:04;18.40;;;12.50;;
17727;SDS011;8984;49.268;12.302;2023-01-01T05:56:31;20.03;;;13.13;;
17727;SDS011;8984;49.268;12.302;2023-01-01T05:58:57;20.57;;;12.67;;
17727;SDS011;8984;49.268;12.302;2023-01-01T06:01:26;19.83;;;12.70;;
17727;SDS011;8984;49.268;12.302;2023-01-01T06:03:55;19.63;;;13.20;;
17727;SDS011;8984;49.268;12.302;2023-01-01T06:06:23;18.47;;;13.07;;
17727;SDS011;8984;49.268;12.302;2023-01-01T06:08:52;19.67;;;12.97;;
17727;SDS011;8984;49.268;12.302;2023-01-01T06:11:20;19.47;;;13.60;;
17727;SDS011;8984;49.268;12.302;2023-01-01T06:13:50;18.93;;;13.77;;
17727;SDS011;8984;49.268;12.302;2023-01-01T06:16:17;18.93;;;13.90;;
17727;SDS011;8984;49.268;12.302;2023-01-01T06:18:45;19.77;;;13.60;;
17727;SDS011;8984;49.268;12.302;2023-01-01T06:21:13;23.87;;;15.33;;
17727;SDS011;8984;49.268;12.302;2023-01-01T06:23:41;18.23;;;13.07;;
17727;SDS011;8984;49.268;12.302;2023-01-01T06:26:08;35.00;;;20.83;;
17727;SDS011;8984;49.268;12.302;2023-01-01T06:28:37;25.90;;;16.93;;
17727;SDS011;8984;49.268;12.302;2023-01-01T06:31:06;29.13;;;20.10;;
17727;SDS011;8984;49.268;12.302;2023-01-01T06:33:34;36.03;;;23.80;;
17727;SDS011;8984;49.268;12.302;2023-01-01T06:36:03;39.70;;;25.67;;
17727;SDS011;8984;49.268;12.302;2023-01-01T06:38:32;36.03;;;23.30;;
17727;SDS011;8984;49.268;12.302;2023-01-01T06:41:01;23.97;;;16.47;;
17727;SDS011;8984;49.268;12.302;2023-01-01T06:43:30;20.90;;;15.00;;
17727;SDS011;8984;49.268;12.302;2023-01-01T06:45:58;25.17;;;15.67;;
17727;SDS011;8984;49.268;12.302;2023-01-01T06:48:26;23.20;;;15.50;;
17727;SDS011;8984;49.268;12.302;2023-01-01T06:50:54;22.60;;;15.33;;
17727;SDS011;8984;49.268;12.302;2023-01-01T06:53:23;21.60;;;14.70;;
17727;SDS011;8984;49.268;12.302;2023-01-01T06:55:51;20.63;;;14.13;;
17727;SDS011;8984;49.268;12.302;2023-01-01T06:58:18;18.93;;;13.67;;
17727;SDS011;8984;49.268;12.302;2023-01-01T07:00:45;21.03;;;14.47;;
17727;SDS011;8984;49.268;12.302;2023-01-01T07:03:11;21.27;;;14.43;;
17727;SDS011;8984;49.268;12.302;2023-01-01T07:05:38;22.70;;;15.43;;
17727;SDS011;8984;49.268;12.302;2023-01-01T07:08:05;22.63;;;15.57;;
17727;SDS011;8984;49.268;12.302;2023-01-01T07:10:33;24.87;;;16.37;;
17727;SDS011;8984;49.268;12.302;2023-01-01T07:13:00;23.23;;;15.57;;
17727;SDS011;8984;49.268;12.302;2023-01-01T07:15:27;24.60;;;16.37;;
17727;SDS011;8984;49.268;12.302;2023-01-01T07:17:55;25.07;;;17.00;;
17727;SDS011;8984;49.268;12.302;2023-01-01T07:20:22;24.47;;;16.70;;
17727;SDS011;8984;49.268;12.302;2023-01-01T07:22:48;25.07;;;16.23;;
17727;SDS011;8984;49.268;12.302;2023-01-01T07:25:15;23.87;;;18.07;;
17727;SDS011;8984;49.268;12.302;2023-01-01T07:27:44;23.20;;;16.53;;
17727;SDS011;8984;49.268;12.302;2023-01-01T07:30:11;26.77;;;17.97;;
17727;SDS011;8984;49.268;12.302;2023-01-01T07:32:37;23.23;;;16.60;;
17727;SDS011;8984;49.268;12.302;2023-01-01T07:35:05;24.77;;;17.53;;
17727;SDS011;8984;49.268;12.302;2023-01-01T07:37:32;26.47;;;17.50;;
17727;SDS011;8984;49.268;12.302;2023-01-01T07:39:59;24.90;;;16.97;;
17727;SDS011;8984;49.268;12.302;2023-01-01T07:42:25;23.17;;;16.53;;
17727;SDS011;8984;49.268;12.302;2023-01-01T07:44:54;27.17;;;16.70;;
17727;SDS011;8984;49.268;12.302;2023-01-01T07:47:21;23.77;;;16.60;;
17727;SDS011;8984;49.268;12.302;2023-01-01T07:49:49;25.87;;;17.20;;
17727;SDS011;8984;49.268;12.302;2023-01-01T07:52:16;26.10;;;16.67;;
17727;SDS011;8984;49.268;12.302;2023-01-01T07:54:43;22.73;;;16.60;;
17727;SDS011;8984;49.268;12.302;2023-01-01T07:57:10;25.50;;;17.10;;
17727;SDS011;8984;49.268;12.302;2023-01-01T07:59:37;22.63;;;16.47;;
17727;SDS011;8984;49.268;12.302;2023-01-01T08:02:05;27.20;;;16.53;;
17727;SDS011;8984;49.268;12.302;2023-01-01T08:04:32;23.20;;;16.23;;
17727;SDS011;8984;49.268;12.302;2023-01-01T08:06:59;27.27;;;17.70;;
17727;SDS011;8984;49.268;12.302;2023-01-01T08:09:26;24.73;;;16.43;;
17727;SDS011;8984;49.268;12.302;2023-01-01T08:11:53;23.27;;;16.30;;
17727;SDS011;8984;49.268;12.302;2023-01-01T08:14:22;24.40;;;16.53;;
17727;SDS011;8984;49.268;12.302;2023-01-01T08:16:49;24.13;;;17.30;;
17727;SDS011;8984;49.268;12.302;2023-01-01T08:19:17;26.47;;;17.63;;
17727;SDS011;8984;49.268;12.302;2023-01-01T08:21:44;24.67;;;16.57;;
17727;SDS011;8984;49.268;12.302;2023-01-01T08:24:11;22.23;;;15.70;;
17727;SDS011;8984;49.268;12.302;2023-01-01T08:26:37;22.90;;;16.47;;
17727;SDS011;8984;49.268;12.302;2023-01-01T08:29:05;27.73;;;17.67;;
17727;SDS011;8984;49.268;12.302;2023-01-01T08:31:32;25.47;;;17.13;;
17727;SDS011;8984;49.268;12.302;2023-01-01T08:33:58;24.13;;;16.13;;
17727;SDS011;8984;49.268;12.302;2023-01-01T08:36:26;25.63;;;17.10;;
17727;SDS011;8984;49.268;12.302;2023-01-01T08:38:54;25.37;;;16.87;;
17727;SDS011;8984;49.268;12.302;2023-01-01T08:41:21;24.77;;;17.07;;
17727;SDS011;8984;49.268;12.302;2023-01-01T08:43:48;22.27;;;16.37;;
17727;SDS011;8984;49.268;12.302;2023-01-01T08:46:15;22.50;;;16.37;;
17727;SDS011;8984;49.268;12.302;2023-01-01T08:48:41;24.43;;;17.23;;
17727;SDS011;8984;49.268;12.302;2023-01-01T08:51:08;23.87;;;16.87;;
17727;SDS011;8984;49.268;12.302;2023-01-01T08:53:37;23.10;;;15.97;;
17727;SDS011;8984;49.268;12.302;2023-01-01T08:56:04;22.37;;;16.50;;
17727;SDS011;8984;49.268;12.302;2023-01-01T08:58:32;24.37;;;16.43;;
17727;SDS011;8984;49.268;12.302;2023-01-01T09:01:01;23.83;;;17.33;;
17727;SDS011;8984;49.268;12.302;2023-01-01T09:03:28;25.17;;;16.27;;
17727;SDS011;8984;49.268;12.302;2023-01-01T09:05:56;25.17;;;16.47;;
17727;SDS011;8984;49.268;12.302;2023-01-01T09:08:22;23.87;;;16.83;;
17727;SDS011;8984;49.268;12.302;2023-01-01T09:10:51;23.33;;;16.90;;
17727;SDS011;8984;49.268;12.302;2023-01-01T09:13:19;26.30;;;16.63;;
17727;SDS011;8984;49.268;12.302;2023-01-01T09:15:47;23.57;;;16.73;;
17727;SDS011;8984;49.268;12.302;2023-01-01T09:18:14;26.00;;;17.33;;
17727;SDS011;8984;49.268;12.302;2023-01-01T09:20:40;26.83;;;17.43;;
17727;SDS011;8984;49.268;12.302;2023-01-01T09:23:07;25.37;;;16.87;;
17727;SDS011;8984;49.268;12.302;2023-01-01T09:25:35;25.10;;;16.90;;
17727;SDS011;8984;49.268;12.302;2023-01-01T09:28:04;26.13;;;17.37;;
17727;SDS011;8984;49.268;12.302;2023-01-01T09:30:32;25.70;;;16.97;;
17727;SDS011;8984;49.268;12.302;2023-01-01T09:33:00;25.73;;;17.90;;
17727;SDS011;8984;49.268;12.302;2023-01-01T09:35:28;27.17;;;17.47;;
17727;SDS011;8984;49.268;12.302;2023-01-01T09:37:55;23.00;;;16.97;;
17727;SDS011;8984;49.268;12.302;2023-01-01T09:40:24;23.97;;;17.13;;
17727;SDS011;8984;49.268;12.302;2023-01-01T09:42:58;23.77;;;17.10;;
17727;SDS011;8984;49.268;12.302;2023-01-01T09:45:36;23.43;;;17.40;;
17727;SDS011;8984;49.268;12.302;2023-01-01T09:48:12;22.83;;;17.30;;
17727;SDS011;8984;49.268;12.302;2023-01-01T09:50:42;22.50;;;17.00;;
17727;SDS011;8984;49.268;12.302;2023-01-01T09:53:11;24.23;;;17.23;;
17727;SDS011;8984;49.268;12.302;2023-01-01T09:55:43;27.10;;;18.03;;
17727;SDS011;8984;49.268;12.302;2023-01-01T09:58:14;22.20;;;16.57;;
17727;SDS011;8984;49.268;12.302;2023-01-01T10:00:41;21.77;;;16.70;;
17727;SDS011;8984;49.268;12.302;2023-01-01T10:03:26;24.80;;;18.13;;
17727;SDS011;8984;49.268;12.302;2023-01-01T10:06:02;23.43;;;16.53;;
17727;SDS011;8984;49.268;12.302;2023-01-01T10:08:41;25.37;;;18.10;;
17727;SDS011;8984;49.268;12.302;2023-01-01T10:11:17;23.37;;;16.33;;
17727;SDS011;8984;49.268;12.302;2023-01-01T10:13:49;22.30;;;16.57;;
17727;SDS011;8984;49.268;12.302;2023-01-01T10:16:22;24.60;;;16.70;;
17727;SDS011;8984;49.268;12.302;2023-01-01T10:18:56;25.73;;;18.23;;
17727;SDS011;8984;49.268;12.302;2023-01-01T10:21:29;22.03;;;16.07;;
17727;SDS011;8984;49.268;12.302;2023-01-01T10:24:00;21.67;;;16.30;;
17727;SDS011;8984;49.268;12.302;2023-01-01T10:26:31;25.53;;;18.10;;
17727;SDS011;8984;49.268;12.302;2023-01-01T10:29:03;27.80;;;19.17;;
17727;SDS011;8984;49.268;12.302;2023-01-01T10:31:39;23.00;;;17.47;;
17727;SDS011;8984;49.268;12.302;2023-01-01T10:34:12;23.27;;;17.07;;
17727;SDS011;8984;49.268;12.302;2023-01-01T10:36:41;23.13;;;15.73;;
17727;SDS011;8984;49.268;12.302;2023-01-01T10:39:10;23.87;;;16.50;;
17727;SDS011;8984;49.268;12.302;2023-01-01T10:41:41;24.03;;;15.90;;
17727;SDS011;8984;49.268;12.302;2023-01-01T10:44:10;20.63;;;15.30;;
17727;SDS011;8984;49.268;12.302;2023-01-01T10:46:39;21.33;;;15.47;;
17727;SDS011;8984;49.268;12.302;2023-01-01T10:49:09;17.93;;;13.10;;
17727;SDS011;8984;49.268;12.302;2023-01-01T10:51:40;21.17;;;14.70;;
17727;SDS011;8984;49.268;12.302;2023-01-01T10:54:23;20.77;;;14.97;;
17727;SDS011;8984;49.268;12.302;2023-01-01T10:56:55;19.90;;;14.30;;
17727;SDS011;8984;49.268;12.302;2023-01-01T10:59:34;18.80;;;14.40;;
17727;SDS011;8984;49.268;12.302;2023-01-01T11:02:17;22.33;;;14.63;;
17727;SDS011;8984;49.268;12.302;2023-01-01T11:04:46;20.23;;;14.13;;
17727;SDS011;8984;49.268;12.302;2023-01-01T11:07:17;18.40;;;13.87;;
17727;SDS011;8984;49.268;12.302;2023-01-01T11:09:47;19.93;;;14.47;;
17727;SDS011;8984;49.268;12.302;2023-01-01T11:12:19;21.03;;;15.47;;
17727;SDS011;8984;49.268;12.302;2023-01-01T11:14:52;18.13;;;13.10;;
17727;SDS011;8984;49.268;12.302;2023-01-01T11:17:20;21.70;;;15.97;;
17727;SDS011;8984;49.268;12.302;2023-01-01T11:19:48;18.80;;;14.13;;
17727;SDS011;8984;49.268;12.302;2023-01-01T11:25:03;19.37;;;14.63;;
17727;SDS011;8984;49.268;12.302;2023-01-01T11:27:44;21.60;;;14.10;;
17727;SDS011;8984;49.268;12.302;2023-01-01T11:30:20;17.07;;;13.33;;
17727;SDS011;8984;49.268;12.302;2023-01-01T11:32:49;18.23;;;14.07;;
17727;SDS011;8984;49.268;12.302;2023-01-01T11:35:19;17.57;;;12.57;;
17727;SDS011;8984;49.268;12.302;2023-01-01T11:37:48;18.20;;;12.80;;
17727;SDS011;8984;49.268;12.302;2023-01-01T11:40:18;18.60;;;14.20;;
17727;SDS011;8984;49.268;12.302;2023-01-01T11:42:47;19.33;;;13.50;;
17727;SDS011;8984;49.268;12.302;2023-01-01T11:45:18;19.47;;;14.00;;
17727;SDS011;8984;49.268;12.302;2023-01-01T11:47:50;18.00;;;13.67;;
17727;SDS011;8984;49.268;12.302;2023-01-01T11:50:22;16.70;;;12.70;;
17727;SDS011;8984;49.268;12.302;2023-01-01T11:52:53;19.57;;;13.17;;
17727;SDS011;8984;49.268;12.302;2023-01-01T11:55:23;19.40;;;13.47;;
17727;SDS011;8984;49.268;12.302;2023-01-01T11:58:02;16.53;;;12.67;;
17727;SDS011;8984;49.268;12.302;2023-01-01T12:00:37;16.23;;;12.77;;
17727;SDS011;8984;49.268;12.302;2023-01-01T12:03:08;16.77;;;13.27;;
17727;SDS011;8984;49.268;12.302;2023-01-01T12:05:41;18.77;;;13.80;;
17727;SDS011;8984;49.268;12.302;2023-01-01T12:08:15;16.47;;;11.73;;
17727;SDS011;8984;49.268;12.302;2023-01-01T12:10:49;18.80;;;12.93;;
17727;SDS011;8984;49.268;12.302;2023-01-01T12:13:19;17.03;;;12.90;;
17727;SDS011;8984;49.268;12.302;2023-01-01T12:15:53;18.70;;;12.57;;
17727;SDS011;8984;49.268;12.302;2023-01-01T12:18:24;18.60;;;12.03;;
17727;SDS011;8984;49.268;12.302;2023-01-01T12:20:59;16.97;;;11.93;;
17727;SDS011;8984;49.268;12.302;2023-01-01T12:23:32;16.17;;;12.03;;
17727;SDS011;8984;49.268;12.302;2023-01-01T12:26:01;18.60;;;11.90;;
17727;SDS011;8984;49.268;12.302;2023-01-01T12:28:38;16.17;;;11.87;;
17727;SDS011;8984;49.268;12.302;2023-01-01T12:31:17;18.50;;;12.47;;
17727;SDS011;8984;49.268;12.302;2023-01-01T12:34:00;16.13;;;11.30;;
17727;SDS011;8984;49.268;12.302;2023-01-01T12:36:34;15.83;;;10.97;;
17727;SDS011;8984;49.268;12.302;2023-01-01T12:39:34;12.63;;;10.30;;
17727;SDS011;8984;49.268;12.302;2023-01-01T12:42:33;13.93;;;10.30;;
17727;SDS011;8984;49.268;12.302;2023-01-01T12:45:15;17.77;;;12.57;;
17727;SDS011;8984;49.268;12.302;2023-01-01T12:47:58;17.90;;;12.50;;
17727;SDS011;8984;49.268;12.302;2023-01-01T12:50:35;18.13;;;11.87;;
17727;SDS011;8984;49.268;12.302;2023-01-01T12:53:11;15.43;;;11.47;;
17727;SDS011;8984;49.268;12.302;2023-01-01T12:55:55;15.63;;;10.67;;
17727;SDS011;8984;49.268;12.302;2023-01-01T12:58:31;12.67;;;10.53;;
17727;SDS011;8984;49.268;12.302;2023-01-01T13:01:03;14.80;;;10.80;;
17727;SDS011;8984;49.268;12.302;2023-01-01T13:03:39;14.07;;;10.97;;
17727;SDS011;8984;49.268;12.302;2023-01-01T13:06:12;24.77;;;18.30;;
17727;SDS011;8984;49.268;12.302;2023-01-01T13:08:41;15.83;;;12.67;;
17727;SDS011;8984;49.268;12.302;2023-01-01T13:11:13;27.17;;;18.80;;
17727;SDS011;8984;49.268;12.302;2023-01-01T13:13:40;18.40;;;12.00;;
17727;SDS011;8984;49.268;12.302;2023-01-01T13:16:08;14.47;;;9.97;;
17727;SDS011;8984;49.268;12.302;2023-01-01T13:18:39;13.33;;;10.07;;
17727;SDS011;8984;49.268;12.302;2023-01-01T13:21:06;13.87;;;9.70;;
17727;SDS011;8984;49.268;12.302;2023-01-01T13:23:49;14.30;;;9.33;;
17727;SDS011;8984;49.268;12.302;2023-01-01T13:26:31;11.60;;;8.80;;
17727;SDS011;8984;49.268;12.302;2023-01-01T13:32:09;11.37;;;8.10;;
17727;SDS011;8984;49.268;12.302;2023-01-01T13:34:45;12.50;;;8.93;;
17727;SDS011;8984;49.268;12.302;2023-01-01T13:37:26;14.17;;;9.50;;
17727;SDS011;8984;49.268;12.302;2023-01-01T13:39:55;13.57;;;9.67;;
17727;SDS011;8984;49.268;12.302;2023-01-01T13:42:39;13.23;;;9.07;;
17727;SDS011;8984;49.268;12.302;2023-01-01T13:45:12;12.03;;;8.53;;
17727;SDS011;8984;49.268;12.302;2023-01-01T13:47:49;13.63;;;9.13;;
17727;SDS011;8984;49.268;12.302;2023-01-01T13:50:32;14.20;;;9.63;;
17727;SDS011;8984;49.268;12.302;2023-01-01T13:53:14;13.87;;;8.97;;
17727;SDS011;8984;49.268;12.302;2023-01-01T13:55:54;11.67;;;8.37;;
17727;SDS011;8984;49.268;12.302;2023-01-01T13:58:41;12.23;;;9.00;;
17727;SDS011;8984;49.268;12.302;2023-01-01T14:01:24;14.90;;;8.63;;
17727;SDS011;8984;49.268;12.302;2023-01-01T14:04:01;13.57;;;9.77;;
17727;SDS011;8984;49.268;12.302;2023-01-01T14:06:35;14.27;;;9.53;;
17727;SDS011;8984;49.268;12.302;2023-01-01T14:09:05;11.20;;;9.23;;
17727;SDS011;8984;49.268;12.302;2023-01-01T14:11:36;13.13;;;9.83;;
17727;SDS011;8984;49.268;12.302;2023-01-01T14:14:02;14.43;;;9.90;;
17727;SDS011;8984;49.268;12.302;2023-01-01T14:16:49;17.10;;;10.53;;
17727;SDS011;8984;49.268;12.302;2023-01-01T14:19:16;13.50;;;9.83;;
17727;SDS011;8984;49.268;12.302;2023-01-01T14:21:44;13.33;;;9.97;;
17727;SDS011;8984;49.268;12.302;2023-01-01T14:24:12;13.40;;;9.77;;
17727;SDS011;8984;49.268;12.302;2023-01-01T14:26:43;14.43;;;10.23;;
17727;SDS011;8984;49.268;12.302;2023-01-01T14:29:13;13.63;;;9.87;;
17727;SDS011;8984;49.268;12.302;2023-01-01T14:31:45;12.33;;;9.40;;
17727;SDS011;8984;49.268;12.302;2023-01-01T14:34:13;13.97;;;9.90;;
17727;SDS011;8984;49.268;12.302;2023-01-01T14:36:49;14.57;;;9.13;;
17727;SDS011;8984;49.268;12.302;2023-01-01T14:39:22;13.63;;;10.07;;
17727;SDS011;8984;49.268;12.302;2023-01-01T14:41:50;13.53;;;10.13;;
17727;SDS011;8984;49.268;12.302;2023-01-01T14:44:19;13.40;;;9.63;;
17727;SDS011;8984;49.268;12.302;2023-01-01T14:46:48;13.00;;;9.73;;
17727;SDS011;8984;49.268;12.302;2023-01-01T14:49:17;14.60;;;10.03;;
17727;SDS011;8984;49.268;12.302;2023-01-01T14:51:49;16.67;;;10.97;;